Time;durP1;ratioP1;P1;durP2;ratioP2;P2;SDS_P1;SDS_P2;PMS_P1;PMS_P2;Temp;Humidity;BMP_temperature;BMP_pressure;BME280_temperature;BME280_humidity;BME280_pressure;Samples;Min_cycle;Max_cycle;Signal;HPM_P1;HPM_P2
2023/03/15 00:01:07;;;;;;;;;;;;;;;8.13;100.00;97155.63;5136057;27;19971;-63
2023/03/15 00:03:36;;;;;;;;;;;;;;;8.33;100.00;97162.81;5122027;28;19998;-62
2023/03/15 00:06:03;;;;;;;;;;;;;;;8.21;100.00;97161.44;5118969;28;19920;-62
2023/03/15 00:08:32;;;;;;;;;;;;;;;8.16;100.00;97172.91;5118979;28;20466;-63
2023/03/15 00:10:58;;;;;;;;;;;;;;;8.48;100.00;97186.75;5118905;28;19924;-63
2023/03/15 00:13:24;;;;;;;;;;;;;;;8.09;100.00;97185.66;5118694;28;19947;-63
2023/03/15 00:15:52;;;;;;;;;;;;;;;8.13;100.00;97192.03;5121617;28;19977;-62
2023/03/15 00:18:20;;;;;;;;;;;;;;;7.86;100.00;97191.47;5122345;28;19935;-63
2023/03/15 00:20:47;;;;;;;;;;;;;;;7.74;100.00;97190.88;5120036;28;20589;-63
2023/03/15 00:23:14;;;;;;;;;;;;;;;7.42;100.00;97196.38;5118744;28;19931;-63
2023/03/15 00:25:40;;;;;;;;;;;;;;;7.89;100.00;97183.75;5118849;28;19963;-63
2023/03/15 00:28:06;;;;;;;;;;;;;;;7.67;100.00;97182.38;5122152;28;19924;-63
2023/03/15 00:30:33;;;;;;;;;;;;;;;7.86;100.00;97191.47;5129643;27;19924;-63
2023/03/15 00:32:59;;;;;;;;;;;;;;;7.67;100.00;97207.09;5122265;28;20491;-63
2023/03/15 00:35:27;;;;;;;;;;;;;;;7.69;100.00;97220.13;5122312;28;19931;-63
2023/03/15 00:37:54;;;;;;;;;;;;;;;7.86;100.00;97220.72;5118945;28;19981;-63
2023/03/15 00:40:20;;;;;;;;;;;;;;;7.86;100.00;97228.69;5118442;28;19924;-63
2023/03/15 00:42:49;;;;;;;;;;;;;;;6.84;100.00;97222.09;5120869;28;19924;-63
2023/03/15 00:45:15;;;;;;;;;;;;;;;6.77;100.00;97228.69;5121980;28;19955;-63
2023/03/15 00:47:42;;;;;;;;;;;;;;;6.94;100.00;97237.28;5120446;28;19920;-63
2023/03/15 00:50:09;;;;;;;;;;;;;;;7.23;100.00;97232.41;5118556;28;19924;-63
2023/03/15 00:52:37;;;;;;;;;;;;;;;7.05;100.00;97238.97;5119238;28;19968;-63
2023/03/15 00:55:04;;;;;;;;;;;;;;;7.34;100.00;97237.50;5122028;28;19951;-63
2023/03/15 00:57:32;;;;;;;;;;;;;;;6.91;100.00;97240.44;5122156;28;20423;-63
2023/03/15 00:59:58;;;;;;;;;;;;;;;7.04;100.00;97248.78;5115829;28;19942;-63
2023/03/15 01:02:25;;;;;;;;;;;;;;;6.53;100.00;97244.94;5127224;28;19924;-63
2023/03/15 01:04:51;;;;;;;;;;;;;;;6.28;100.00;97250.03;5121394;28;19990;-63
2023/03/15 01:07:18;;;;;;;;;;;;;;;6.03;100.00;97246.34;5121931;28;19928;-63
2023/03/15 01:09:45;;;;;;;;;;;;;;;6.27;100.00;97252.94;5119053;28;20384;-63
2023/03/15 01:12:12;;;;;;;;;;;;;;;5.99;100.00;97259.28;5118514;28;19920;-62
2023/03/15 01:14:39;;;;;;;;;;;;;;;5.88;100.00;97244.34;5119499;28;19967;-62
2023/03/15 01:17:05;;;;;;;;;;;;;;;5.66;100.00;97254.94;5121837;28;19924;-63
2023/03/15 01:19:32;;;;;;;;;;;;;;;5.50;100.00;97261.09;5121731;28;19926;-63
2023/03/15 01:21:58;;;;;;;;;;;;;;;5.12;100.00;97259.25;5118310;28;19966;-63
2023/03/15 01:24:24;;;;;;;;;;;;;;;4.94;100.00;97271.97;5118218;28;19931;-62
2023/03/15 01:26:52;;;;;;;;;;;;;;;4.80;100.00;97272.28;5121023;28;19932;-62
2023/03/15 01:29:18;;;;;;;;;;;;;;;4.83;100.00;97278.94;5121835;28;19979;-62
2023/03/15 01:31:45;;;;;;;;;;;;;;;5.03;100.00;97283.72;5134502;28;19924;-62
2023/03/15 01:34:11;;;;;;;;;;;;;;;4.74;100.00;97280.38;5118086;28;19928;-62
2023/03/15 01:36:37;;;;;;;;;;;;;;;4.78;100.00;97284.16;5119059;28;20050;-63
2023/03/15 01:39:04;;;;;;;;;;;;;;;5.19;100.00;97291.66;5121498;28;19952;-63
2023/03/15 01:41:30;;;;;;;;;;;;;;;5.25;100.00;97285.38;5121526;28;19952;-63
2023/03/15 01:43:58;;;;;;;;;;;;;;;5.26;100.00;97284.31;5109441;28;19926;-63
2023/03/15 01:46:25;;;;;;;;;;;;;;;5.16;100.00;97278.91;5109454;28;19924;-62
2023/03/15 01:48:55;;;;;;;;;;;;;;;5.05;100.00;97279.00;5110367;28;20267;-63
2023/03/15 01:51:23;;;;;;;;;;;;;;;5.05;100.00;97279.00;5113131;28;19927;-62
2023/03/15 01:53:52;;;;;;;;;;;;;;;5.15;100.00;97284.44;5113079;28;19947;-63
2023/03/15 01:56:19;;;;;;;;;;;;;;;4.99;100.00;97286.06;5113012;28;20065;-63
2023/03/15 01:58:47;;;;;;;;;;;;;;;4.93;100.00;97287.03;5113108;28;19924;-63
2023/03/15 02:01:16;;;;;;;;;;;;;;;4.87;100.00;97290.63;5133722;27;19952;-63
2023/03/15 02:03:45;;;;;;;;;;;;;;;4.66;100.00;97284.25;5123120;28;20039;-63
2023/03/15 02:06:17;;;;;;;;;;;;;;;4.57;100.00;97287.53;5121504;28;19991;-62
2023/03/15 02:08:45;;;;;;;;;;;;;;;4.30;100.00;97288.13;5122808;28;19924;-63
2023/03/15 02:11:11;;;;;;;;;;;;;;;4.73;100.00;97307.88;5124639;28;19939;-62
2023/03/15 02:13:38;;;;;;;;;;;;;;;4.73;100.00;97310.53;5123798;28;19924;-63
2023/03/15 02:16:05;;;;;;;;;;;;;;;5.23;100.00;97321.88;5121124;28;19990;-62
2023/03/15 02:18:35;;;;;;;;;;;;;;;5.35;100.00;97327.88;5121302;28;19924;-64
2023/03/15 02:21:08;;;;;;;;;;;;;;;5.95;100.00;97325.25;5124426;28;19927;-62
2023/03/15 02:23:34;;;;;;;;;;;;;;;6.20;100.00;97331.88;5123884;28;19966;-63
2023/03/15 02:26:05;;;;;;;;;;;;;;;6.51;100.00;97339.91;5120945;28;19999;-63
2023/03/15 02:28:33;;;;;;;;;;;;;;;6.95;100.00;97339.75;5121000;28;19987;-63
2023/03/15 02:30:59;;;;;;;;;;;;;;;6.84;100.00;97344.16;5139368;27;19924;-63
2023/03/15 02:33:27;;;;;;;;;;;;;;;7.10;100.00;97350.50;5124510;28;19985;-64
2023/03/15 02:35:54;;;;;;;;;;;;;;;6.66;100.00;97351.69;5121183;28;19924;-63
2023/03/15 02:38:21;;;;;;;;;;;;;;;6.96;100.00;97349.31;5120929;28;19925;-63
2023/03/15 02:40:48;;;;;;;;;;;;;;;7.10;100.00;97347.03;5122649;28;19924;-63
2023/03/15 02:43:18;;;;;;;;;;;;;;;7.16;100.00;97360.09;5124097;28;19966;-63
2023/03/15 02:45:46;;;;;;;;;;;;;;;7.22;100.00;97359.06;5122147;28;19924;-63
2023/03/15 02:48:13;;;;;;;;;;;;;;;7.13;100.00;97381.03;5120534;28;19975;-63
2023/03/15 02:50:39;;;;;;;;;;;;;;;6.88;100.00;97378.97;5121626;28;19992;-63
2023/03/15 02:53:06;;;;;;;;;;;;;;;7.08;100.00;97389.78;5123861;28;19999;-63
2023/03/15 02:55:32;;;;;;;;;;;;;;;6.95;100.00;97393.66;5123663;28;19963;-62
2023/03/15 02:57:59;;;;;;;;;;;;;;;6.47;100.00;97407.75;5120183;28;19963;-63
2023/03/15 03:00:26;;;;;;;;;;;;;;;6.42;100.00;97420.16;5133676;27;19924;-63
2023/03/15 03:02:54;;;;;;;;;;;;;;;5.99;100.00;97420.97;5124222;27;20496;-63
2023/03/15 03:05:20;;;;;;;;;;;;;;;6.17;100.00;97418.00;5123561;28;19971;-62
2023/03/15 03:07:49;;;;;;;;;;;;;;;6.21;100.00;97420.97;5121357;28;19958;-64
2023/03/15 03:10:16;;;;;;;;;;;;;;;6.16;100.00;97437.59;5118881;28;19928;-62
2023/03/15 03:12:42;;;;;;;;;;;;;;;5.95;100.00;97444.50;5121854;28;19928;-64
2023/03/15 03:15:09;;;;;;;;;;;;;;;5.46;100.00;97437.38;5122487;28;19991;-64
2023/03/15 03:17:37;;;;;;;;;;;;;;;5.21;100.00;97448.38;5123055;28;19924;-63
2023/03/15 03:20:08;;;;;;;;;;;;;;;6.00;100.00;97457.03;5120328;28;19930;-63
2023/03/15 03:22:35;;;;;;;;;;;;;;;5.67;100.00;97457.84;5120732;28;19919;-63
2023/03/15 03:25:02;;;;;;;;;;;;;;;6.09;100.00;97474.13;5123326;28;19958;-62
2023/03/15 03:27:29;;;;;;;;;;;;;;;6.29;100.00;97478.88;5122101;28;19988;-64
2023/03/15 03:29:55;;;;;;;;;;;;;;;6.04;100.00;97491.78;5124463;27;19995;-64
2023/03/15 03:32:21;;;;;;;;;;;;;;;5.43;100.00;97486.34;5129272;27;19960;-63
2023/03/15 03:34:48;;;;;;;;;;;;;;;5.66;100.00;97505.78;5122040;28;20550;-63
2023/03/15 03:37:17;;;;;;;;;;;;;;;5.59;100.00;97510.44;5123064;28;19935;-63
2023/03/15 03:39:43;;;;;;;;;;;;;;;5.33;100.00;97519.78;5121381;28;19938;-63
2023/03/15 03:42:10;;;;;;;;;;;;;;;5.88;100.00;97525.22;5119331;28;19967;-63
2023/03/15 03:44:36;;;;;;;;;;;;;;;5.67;100.00;97525.91;5120047;28;19962;-63
2023/03/15 03:47:03;;;;;;;;;;;;;;;5.69;100.00;97537.09;5123009;28;20317;-64
2023/03/15 03:49:29;;;;;;;;;;;;;;;6.01;100.00;97534.66;5123109;28;20001;-63
2023/03/15 03:51:55;;;;;;;;;;;;;;;6.12;100.00;97547.84;5119570;28;19928;-64
2023/03/15 03:54:23;;;;;;;;;;;;;;;6.50;100.00;97547.03;5119277;28;19935;-63
2023/03/15 03:56:50;;;;;;;;;;;;;;;6.25;100.00;97558.09;5121741;28;19970;-63
2023/03/15 03:59:16;;;;;;;;;;;;;;;6.27;100.00;97560.53;5122826;28;19952;-62
2023/03/15 04:01:42;;;;;;;;;;;;;;;5.79;100.00;97563.72;5135891;27;19923;-62
2023/03/15 04:04:12;;;;;;;;;;;;;;;5.55;100.00;97567.56;5118959;28;19955;-63
2023/03/15 04:06:44;;;;;;;;;;;;;;;5.65;100.00;97567.75;5120031;28;19924;-62
2023/03/15 04:09:11;;;;;;;;;;;;;;;5.51;100.00;97575.16;5122455;28;19946;-63
2023/03/15 04:11:41;;;;;;;;;;;;;;;5.50;100.00;97567.47;5121210;28;19975;-63
2023/03/15 04:14:07;;;;;;;;;;;;;;;5.80;100.00;97574.09;5118984;28;19924;-63
2023/03/15 04:16:34;;;;;;;;;;;;;;;6.26;100.00;97580.13;5119188;28;20003;-63
2023/03/15 04:19:00;;;;;;;;;;;;;;;6.65;100.00;97584.41;5122362;28;19924;-63
2023/03/15 04:21:30;;;;;;;;;;;;;;;6.85;100.00;97597.09;5122163;28;19923;-63
2023/03/15 04:23:57;;;;;;;;;;;;;;;6.93;100.00;97589.50;5117584;28;20002;-63
2023/03/15 04:26:25;;;;;;;;;;;;;;;7.09;100.00;97597.69;5118908;28;19992;-63
2023/03/15 04:28:53;;;;;;;;;;;;;;;7.15;100.00;97594.81;5121674;28;19955;-63
2023/03/15 04:31:19;;;;;;;;;;;;;;;7.21;100.00;97606.31;5137220;27;19924;-63
2023/03/15 04:33:45;;;;;;;;;;;;;;;7.24;100.00;97605.81;5120163;28;19987;-63
2023/03/15 04:36:17;;;;;;;;;;;;;;;7.23;100.00;97614.81;5117437;28;19956;-63
2023/03/15 04:38:45;;;;;;;;;;;;;;;7.25;100.00;97612.72;5119969;28;19991;-63
2023/03/15 04:41:12;;;;;;;;;;;;;;;7.24;100.00;97613.78;5122091;28;19920;-63
2023/03/15 04:43:38;;;;;;;;;;;;;;;7.19;100.00;97627.78;5120029;28;19920;-63
2023/03/15 04:46:06;;;;;;;;;;;;;;;7.22;100.00;97631.81;5118369;28;19963;-63
2023/03/15 04:48:33;;;;;;;;;;;;;;;7.20;100.00;97642.69;5118768;28;19995;-63
2023/03/15 04:50:59;;;;;;;;;;;;;;;7.16;100.00;97654.84;5122022;28;19955;-63
2023/03/15 04:53:25;;;;;;;;;;;;;;;7.18;100.00;97663.34;5121986;28;19923;-63
2023/03/15 04:55:52;;;;;;;;;;;;;;;7.19;100.00;97662.31;5119025;28;19943;-63
2023/03/15 04:58:18;;;;;;;;;;;;;;;6.97;100.00;97667.63;5118551;28;19964;-63
2023/03/15 05:00:45;;;;;;;;;;;;;;;6.78;100.00;97662.81;5135257;28;19966;-63
2023/03/15 05:03:13;;;;;;;;;;;;;;;6.91;100.00;97676.56;5121740;28;20541;-63
2023/03/15 05:05:39;;;;;;;;;;;;;;;7.00;100.00;97690.22;5120721;28;19977;-63
2023/03/15 05:08:05;;;;;;;;;;;;;;;6.95;100.00;97692.81;5118352;28;19988;-63
2023/03/15 05:10:32;;;;;;;;;;;;;;;7.04;100.00;97684.19;5118331;28;20067;-63
2023/03/15 05:12:58;;;;;;;;;;;;;;;7.12;100.00;97698.88;5120729;28;20615;-63
2023/03/15 05:15:25;;;;;;;;;;;;;;;7.15;100.00;97694.94;5121999;28;20070;-63
2023/03/15 05:17:53;;;;;;;;;;;;;;;7.12;100.00;97696.22;5118849;28;19959;-63
2023/03/15 05:20:22;;;;;;;;;;;;;;;7.11;100.00;97702.59;5117097;28;20336;-63
2023/03/15 05:22:48;;;;;;;;;;;;;;;7.12;100.00;97712.16;5120956;28;19924;-63
2023/03/15 05:25:15;;;;;;;;;;;;;;;7.16;100.00;97715.94;5125640;28;19923;-63
2023/03/15 05:27:41;;;;;;;;;;;;;;;7.25;100.00;97725.06;5124182;28;19932;-63
2023/03/15 05:30:08;;;;;;;;;;;;;;;7.13;100.00;97731.53;5130195;27;19962;-62
2023/03/15 05:32:38;;;;;;;;;;;;;;;7.17;100.00;97736.13;5128573;27;19970;-62
2023/03/15 05:35:05;;;;;;;;;;;;;;;7.10;100.00;97748.78;5125576;28;19959;-62
2023/03/15 05:37:34;;;;;;;;;;;;;;;6.85;100.00;97751.06;5124258;28;19923;-62
2023/03/15 05:40:01;;;;;;;;;;;;;;;6.77;100.00;97754.13;5121651;28;19946;-62
2023/03/15 05:42:28;;;;;;;;;;;;;;;6.70;100.00;97761.44;5121849;28;19924;-63
2023/03/15 05:44:55;;;;;;;;;;;;;;;6.63;100.00;97750.19;5124900;28;19955;-63
2023/03/15 05:47:21;;;;;;;;;;;;;;;6.57;100.00;97761.75;5123822;28;19978;-63
2023/03/15 05:49:48;;;;;;;;;;;;;;;6.25;100.00;97759.63;5122880;28;20088;-63
2023/03/15 05:52:15;;;;;;;;;;;;;;;6.36;100.00;97765.94;5121537;28;19950;-63
2023/03/15 05:54:42;;;;;;;;;;;;;;;6.42;100.00;97776.38;5122896;28;20666;-63
2023/03/15 05:57:09;;;;;;;;;;;;;;;6.26;100.00;97776.34;5125066;28;19946;-63
2023/03/15 05:59:35;;;;;;;;;;;;;;;6.20;100.00;97775.47;5124432;28;19962;-63
2023/03/15 06:02:02;;;;;;;;;;;;;;;6.41;100.00;97780.06;5136526;27;19924;-63
2023/03/15 06:04:28;;;;;;;;;;;;;;;6.39;100.00;97794.63;5121343;28;19988;-62
2023/03/15 06:06:54;;;;;;;;;;;;;;;6.36;100.00;97793.25;5124699;28;19987;-62
2023/03/15 06:09:21;;;;;;;;;;;;;;;6.48;100.00;97791.34;5125027;28;20927;-62
2023/03/15 06:11:49;;;;;;;;;;;;;;;6.27;100.00;97805.28;5121511;28;19966;-62
2023/03/15 06:14:16;;;;;;;;;;;;;;;6.24;100.00;97803.13;5121410;28;19924;-62
2023/03/15 06:16:42;;;;;;;;;;;;;;;6.24;100.00;97811.06;5122806;28;19920;-62
2023/03/15 06:19:08;;;;;;;;;;;;;;;6.40;100.00;97814.81;5124641;28;19991;-62
2023/03/15 06:21:35;;;;;;;;;;;;;;;6.36;100.00;97818.97;5124178;28;19961;-62
2023/03/15 06:24:01;;;;;;;;;;;;;;;6.35;100.00;97814.69;5120646;28;19924;-62
2023/03/15 06:26:27;;;;;;;;;;;;;;;6.37;100.00;97825.91;5120716;28;19924;-62
2023/03/15 06:28:55;;;;;;;;;;;;;;;6.29;100.00;97824.41;5123696;28;19927;-62
2023/03/15 06:31:21;;;;;;;;;;;;;;;6.28;100.00;97828.09;5139133;27;19924;-62
2023/03/15 06:33:48;;;;;;;;;;;;;;;6.50;100.00;97837.00;5121276;28;19983;-62
2023/03/15 06:36:14;;;;;;;;;;;;;;;6.58;100.00;97841.13;5120474;28;19951;-63
2023/03/15 06:38:41;;;;;;;;;;;;;;;6.59;100.00;97845.41;5121515;28;19951;-63
2023/03/15 06:41:07;;;;;;;;;;;;;;;6.50;100.00;97855.56;5123849;28;20044;-63
2023/03/15 06:43:34;;;;;;;;;;;;;;;6.29;100.00;97855.44;5123552;28;19924;-63
2023/03/15 06:46:01;;;;;;;;;;;;;;;6.41;100.00;97850.88;5120413;28;19925;-64
2023/03/15 06:48:28;;;;;;;;;;;;;;;6.59;100.00;97852.53;5120358;28;19924;-64
2023/03/15 06:50:54;;;;;;;;;;;;;;;6.67;100.00;97852.16;5123539;28;19986;-63
2023/03/15 06:53:20;;;;;;;;;;;;;;;6.77;100.00;97854.97;5123620;28;19923;-63
2023/03/15 06:55:49;;;;;;;;;;;;;;;6.82;100.00;97863.00;5121337;28;19920;-63
2023/03/15 06:58:15;;;;;;;;;;;;;;;6.64;100.00;97857.94;5119990;28;19924;-63
2023/03/15 07:00:43;;;;;;;;;;;;;;;6.49;100.00;97874.38;5136563;27;19930;-63
2023/03/15 07:03:10;;;;;;;;;;;;;;;6.48;100.00;97873.56;5123290;28;19928;-63
2023/03/15 07:05:37;;;;;;;;;;;;;;;6.41;100.00;97880.88;5122426;28;19963;-62
2023/03/15 07:08:04;;;;;;;;;;;;;;;6.24;100.00;97879.22;5119828;28;19932;-62
2023/03/15 07:10:30;;;;;;;;;;;;;;;6.09;100.00;97881.56;5118688;28;19966;-62
2023/03/15 07:12:57;;;;;;;;;;;;;;;6.19;100.00;97876.47;5123221;28;19923;-62
2023/03/15 07:15:23;;;;;;;;;;;;;;;6.21;100.00;97890.28;5123235;28;19971;-62
2023/03/15 07:17:49;;;;;;;;;;;;;;;6.24;100.00;97884.50;5120705;28;19924;-64
2023/03/15 07:20:17;;;;;;;;;;;;;;;6.11;100.00;97893.53;5119599;28;19992;-62
2023/03/15 07:22:44;;;;;;;;;;;;;;;6.15;100.00;97896.53;5121141;28;19946;-62
2023/03/15 07:25:11;;;;;;;;;;;;;;;6.33;100.00;97893.69;5122932;28;19966;-62
2023/03/15 07:27:37;;;;;;;;;;;;;;;6.35;100.00;97905.69;5121994;28;19959;-63
2023/03/15 07:30:04;;;;;;;;;;;;;;;6.25;100.00;97894.88;5126357;27;19987;-62
2023/03/15 07:32:31;;;;;;;;;;;;;;;6.18;100.00;97904.00;5126906;27;19991;-62
2023/03/15 07:34:59;;;;;;;;;;;;;;;6.15;100.00;97892.03;5119371;28;19952;-62
2023/03/15 07:37:28;;;;;;;;;;;;;;;6.17;100.00;97897.09;5119181;28;19928;-62
2023/03/15 07:39:54;;;;;;;;;;;;;;;6.04;100.00;97900.81;5121863;28;19925;-62
2023/03/15 07:42:20;;;;;;;;;;;;;;;6.16;100.00;97909.53;5122337;28;19931;-62
2023/03/15 07:44:47;;;;;;;;;;;;;;;6.09;100.00;97906.22;5120171;28;20055;-63
2023/03/15 07:47:13;;;;;;;;;;;;;;;6.21;100.00;97907.00;5118118;28;19931;-63
2023/03/15 07:49:39;;;;;;;;;;;;;;;6.10;100.00;97907.81;5120132;28;19988;-62
2023/03/15 07:52:07;;;;;;;;;;;;;;;6.25;100.00;97912.66;5122274;28;19927;-62
2023/03/15 07:54:34;;;;;;;;;;;;;;;6.09;100.00;97923.97;5122262;28;19924;-62
2023/03/15 07:57:01;;;;;;;;;;;;;;;6.20;100.00;97920.47;5118663;28;19932;-62
2023/03/15 07:59:27;;;;;;;;;;;;;;;6.20;100.00;97929.25;5118824;28;20090;-62
2023/03/15 08:01:54;;;;;;;;;;;;;;;6.10;100.00;97937.00;5134706;27;19930;-63
2023/03/15 08:04:20;;;;;;;;;;;;;;;6.08;100.00;97936.44;5118617;28;19984;-62
2023/03/15 08:06:46;;;;;;;;;;;;;;;5.78;100.00;97939.22;5120555;28;19988;-63
2023/03/15 08:09:13;;;;;;;;;;;;;;;6.08;100.00;97931.13;5122073;28;19991;-63
2023/03/15 08:11:40;;;;;;;;;;;;;;;6.01;100.00;97938.38;5121051;28;19932;-63
2023/03/15 08:14:06;;;;;;;;;;;;;;;6.08;100.00;97925.81;5118496;28;19959;-62
2023/03/15 08:16:33;;;;;;;;;;;;;;;5.96;100.00;97930.34;5118688;28;19995;-62
2023/03/15 08:18:59;;;;;;;;;;;;;;;5.66;100.00;97945.53;5122026;28;19982;-62
2023/03/15 08:21:25;;;;;;;;;;;;;;;5.89;100.00;97937.59;5121899;28;19927;-63
2023/03/15 08:23:52;;;;;;;;;;;;;;;5.71;100.00;97943.00;5118946;28;19963;-63
2023/03/15 08:26:18;;;;;;;;;;;;;;;5.91;100.00;97930.25;5118305;28;19963;-63
2023/03/15 08:28:46;;;;;;;;;;;;;;;6.04;100.00;97929.97;5119974;28;19932;-63
2023/03/15 08:31:13;;;;;;;;;;;;;;;6.13;100.00;97936.53;5136691;27;19924;-63
2023/03/15 08:33:39;;;;;;;;;;;;;;;6.19;100.00;97935.59;5120798;28;20442;-62
2023/03/15 08:36:06;;;;;;;;;;;;;;;5.85;100.00;97937.25;5118308;28;20007;-62
2023/03/15 08:38:32;;;;;;;;;;;;;;;5.72;100.00;97944.63;5118321;28;19924;-62
2023/03/15 08:40:59;;;;;;;;;;;;;;;5.49;100.00;97945.41;5121509;28;19919;-62
2023/03/15 08:43:25;;;;;;;;;;;;;;;5.48;100.00;97943.00;5121818;28;19959;-62
2023/03/15 08:45:53;;;;;;;;;;;;;;;5.89;100.00;97945.56;5118881;28;19951;-62
2023/03/15 08:48:19;;;;;;;;;;;;;;;5.90;100.00;97931.28;5118105;28;19928;-62
2023/03/15 08:50:46;;;;;;;;;;;;;;;5.99;100.00;97932.53;5118807;28;19928;-62
2023/03/15 08:53:12;;;;;;;;;;;;;;;5.75;100.00;97938.84;5121632;28;19966;-62
2023/03/15 08:55:38;;;;;;;;;;;;;;;5.97;100.00;97934.63;5120738;28;19923;-62
2023/03/15 08:58:05;;;;;;;;;;;;;;;5.67;100.00;97941.84;5120559;28;19931;-62
2023/03/15 09:00:31;;;;;;;;;;;;;;;5.84;100.00;97946.22;5137296;27;19958;-62
2023/03/15 09:03:00;;;;;;;;;;;;;;;5.92;100.00;97950.38;5121239;28;19935;-63
2023/03/15 09:05:26;;;;;;;;;;;;;;;5.97;100.00;97948.66;5122253;28;19920;-63
2023/03/15 09:07:53;;;;;;;;;;;;;;;6.30;100.00;97956.00;5125122;28;20131;-63
2023/03/15 09:10:19;;;;;;;;;;;;;;;6.28;100.00;97954.63;5125658;28;19995;-63
2023/03/15 09:12:47;;;;;;;;;;;;;;;6.43;100.00;97952.25;5123603;28;19983;-61
2023/03/15 09:15:13;;;;;;;;;;;;;;;6.48;100.00;97957.66;5121990;28;19970;-62
2023/03/15 09:17:40;;;;;;;;;;;;;;;6.52;100.00;97958.81;5122958;28;19971;-62
2023/03/15 09:20:13;;;;;;;;;;;;;;;6.53;100.00;97953.25;5125427;28;19924;-63
2023/03/15 09:22:39;;;;;;;;;;;;;;;6.70;100.00;97960.47;5124427;28;19919;-62
2023/03/15 09:25:07;;;;;;;;;;;;;;;6.68;100.00;97958.06;5121920;28;19924;-62
2023/03/15 09:27:33;;;;;;;;;;;;;;;6.75;100.00;97960.56;5121776;28;19994;-62
2023/03/15 09:29:59;;;;;;;;;;;;;;;6.65;100.00;97958.53;5126958;27;19965;-62
2023/03/15 09:32:26;;;;;;;;;;;;;;;6.74;100.00;97970.38;5130585;27;19932;-63
2023/03/15 09:34:52;;;;;;;;;;;;;;;6.69;100.00;97966.81;5124557;28;19969;-63
2023/03/15 09:37:22;;;;;;;;;;;;;;;6.64;100.00;97970.19;5123691;28;19927;-63
2023/03/15 09:39:48;;;;;;;;;;;;;;;6.46;100.00;97973.81;5122564;28;19930;-63
2023/03/15 09:42:17;;;;;;;;;;;;;;;6.39;100.00;97970.50;5121334;28;19963;-63
2023/03/15 09:44:46;;;;;;;;;;;;;;;6.29;100.00;97980.06;5122924;28;19979;-63
2023/03/15 09:47:20;;;;;;;;;;;;;;;6.45;100.00;97980.16;5124673;28;19926;-64
2023/03/15 09:49:50;;;;;;;;;;;;;;;6.45;100.00;97974.84;5122594;28;19923;-64
2023/03/15 09:52:30;;;;;;;;;;;;;;;6.53;100.00;97980.84;5121200;28;19927;-63
2023/03/15 09:54:58;;;;;;;;;;;;;;;6.65;100.00;97982.44;5124672;28;19931;-63
2023/03/15 09:57:30;;;;;;;;;;;;;;;6.68;100.00;97978.50;5124509;28;19951;-63
2023/03/15 09:59:58;;;;;;;;;;;;;;;6.72;100.00;97987.56;5126400;27;19964;-63
2023/03/15 10:02:27;;;;;;;;;;;;;;;6.67;100.00;97990.13;5130359;27;19924;-63
2023/03/15 10:04:55;;;;;;;;;;;;;;;6.87;100.00;97980.69;5123894;28;19939;-62
2023/03/15 10:07:22;;;;;;;;;;;;;;;6.96;100.00;97989.13;5124526;28;19954;-64
2023/03/15 10:09:49;;;;;;;;;;;;;;;7.07;100.00;97985.59;5121507;28;19947;-64
2023/03/15 10:12:20;;;;;;;;;;;;;;;7.07;100.00;97978.44;5120789;28;19962;-63
2023/03/15 10:15:04;;;;;;;;;;;;;;;7.02;100.00;97988.94;5122600;28;20022;-64
2023/03/15 10:17:37;;;;;;;;;;;;;;;7.02;99.36;97985.50;5123996;28;20391;-62
2023/03/15 10:20:08;;;;;;;;;;;;;;;7.08;100.00;97992.53;5120620;28;19964;-63
2023/03/15 10:22:37;;;;;;;;;;;;;;;7.12;100.00;97993.63;5121229;28;19924;-63
2023/03/15 10:25:12;;;;;;;;;;;;;;;7.02;100.00;98004.09;5124076;28;19923;-62
2023/03/15 10:27:41;;;;;;;;;;;;;;;7.02;100.00;97998.78;5123319;28;19945;-62
2023/03/15 10:30:15;;;;;;;;;;;;;;;7.20;99.79;98006.53;5127558;27;19924;-62
2023/03/15 10:32:43;;;;;;;;;;;;;;;7.35;94.63;97998.03;5126326;27;19931;-62
2023/03/15 10:35:13;;;;;;;;;;;;;;;7.40;93.40;98000.75;5123832;28;19923;-63
2023/03/15 10:37:41;;;;;;;;;;;;;;;7.34;92.38;97989.25;5122869;28;19998;-63
2023/03/15 10:40:14;;;;;;;;;;;;;;;7.33;98.50;97989.50;5120258;28;19924;-63
2023/03/15 10:42:41;;;;;;;;;;;;;;;7.45;97.05;97999.00;5121495;28;19963;-63
2023/03/15 10:45:12;;;;;;;;;;;;;;;7.42;100.00;97991.53;5123661;28;19979;-63
2023/03/15 10:47:40;;;;;;;;;;;;;;;7.45;94.74;97998.22;5122815;28;19959;-63
2023/03/15 10:50:07;;;;;;;;;;;;;;;7.56;91.45;97990.16;5120211;28;20599;-63
2023/03/15 10:52:35;;;;;;;;;;;;;;;7.36;96.61;97983.72;5120294;28;20023;-63
2023/03/15 10:55:04;;;;;;;;;;;;;;;7.50;97.07;97985.00;5123727;28;19946;-63
2023/03/15 10:57:34;;;;;;;;;;;;;;;7.58;97.84;97972.09;5123724;28;20000;-63
2023/03/15 11:00:05;;;;;;;;;;;;;;;7.65;94.35;97984.41;5117984;27;19933;-63
2023/03/15 11:02:32;;;;;;;;;;;;;;;7.58;93.46;97982.72;5127194;27;19931;-63
2023/03/15 11:05:03;;;;;;;;;;;;;;;7.52;95.54;97985.56;5111576;28;20529;-62
2023/03/15 11:07:29;;;;;;;;;;;;;;;7.65;94.19;97985.22;5111299;28;19964;-63
2023/03/15 11:09:59;;;;;;;;;;;;;;;7.57;91.47;97965.19;5110070;28;19931;-63
2023/03/15 11:12:26;;;;;;;;;;;;;;;7.52;86.34;97967.75;5111068;28;19959;-64
2023/03/15 11:14:56;;;;;;;;;;;;;;;7.60;92.39;97959.41;5118273;28;19936;-62
2023/03/15 11:17:24;;;;;;;;;;;;;;;7.79;90.13;97965.25;5118410;28;19924;-62
2023/03/15 11:19:53;;;;;;;;;;;;;;;7.95;92.17;97960.97;5120462;28;19924;-63
2023/03/15 11:22:20;;;;;;;;;;;;;;;7.98;91.44;97945.31;5118816;28;19923;-63
2023/03/15 11:24:46;;;;;;;;;;;;;;;8.00;94.63;97937.91;5121343;28;19991;-63
2023/03/15 11:27:14;;;;;;;;;;;;;;;8.10;93.00;97942.56;5122959;28;19987;-62
2023/03/15 11:29:43;;;;;;;;;;;;;;;8.13;90.79;97936.75;5122361;27;19932;-62
2023/03/15 11:32:13;;;;;;;;;;;;;;;8.33;89.89;97937.03;5133053;27;19924;-62
2023/03/15 11:34:42;;;;;;;;;;;;;;;8.19;86.98;97940.28;5120541;28;19959;-63
2023/03/15 11:37:14;;;;;;;;;;;;;;;8.27;89.18;97942.50;5123046;28;19977;-63
2023/03/15 11:39:44;;;;;;;;;;;;;;;8.30;89.92;97956.13;5121768;28;19956;-63
2023/03/15 11:42:13;;;;;;;;;;;;;;;8.33;92.17;97946.84;5119603;28;19931;-63
2023/03/15 11:44:43;;;;;;;;;;;;;;;8.32;93.00;97940.75;5120242;28;19991;-63
2023/03/15 11:47:14;;;;;;;;;;;;;;;8.21;93.34;97940.81;5122415;28;19959;-63
2023/03/15 11:49:44;;;;;;;;;;;;;;;8.39;89.73;97936.03;5121377;28;19924;-63
2023/03/15 11:52:12;;;;;;;;;;;;;;;8.38;87.55;97936.28;5118996;28;20023;-63
2023/03/15 11:54:38;;;;;;;;;;;;;;;8.35;91.72;97934.94;5119734;28;19959;-63
2023/03/15 11:57:06;;;;;;;;;;;;;;;8.39;93.73;97933.38;5122363;28;20133;-64
2023/03/15 11:59:32;;;;;;;;;;;;;;;8.43;94.43;97920.38;5122403;28;19924;-63
2023/03/15 12:02:00;;;;;;;;;;;;;;;8.57;92.14;97913.63;5134250;27;19923;-63
2023/03/15 12:04:37;;;;;;;;;;;;;;;8.63;87.58;97925.94;5118814;28;20423;-63
2023/03/15 12:07:04;;;;;;;;;;;;;;;8.50;87.26;97919.16;5118691;28;19924;-63
2023/03/15 12:09:45;;;;;;;;;;;;;;;8.49;88.48;97908.72;5118765;28;19924;-63
2023/03/15 12:12:30;;;;;;;;;;;;;;;8.36;86.89;97930.38;5118707;28;19924;-63
2023/03/15 12:15:01;;;;;;;;;;;;;;;8.35;88.64;97912.84;5120934;28;19958;-63
2023/03/15 12:17:43;;;;;;;;;;;;;;;8.35;90.27;97911.00;5121179;28;19935;-63
2023/03/15 12:20:18;;;;;;;;;;;;;;;8.41;88.71;97912.66;5118880;28;19987;-63
2023/03/15 12:22:49;;;;;;;;;;;;;;;8.45;86.45;97907.63;5120340;28;19963;-63
2023/03/15 12:25:18;;;;;;;;;;;;;;;8.33;88.46;97886.47;5122051;28;19945;-63
2023/03/15 12:27:47;;;;;;;;;;;;;;;8.49;84.93;97893.56;5120112;28;19986;-63
2023/03/15 12:30:19;;;;;;;;;;;;;;;8.50;86.07;97894.38;5127413;27;19988;-63
2023/03/15 12:32:48;;;;;;;;;;;;;;;8.56;86.30;97899.50;5123575;27;19994;-63
2023/03/15 12:35:19;;;;;;;;;;;;;;;8.49;87.53;97882.94;5122177;28;19972;-63
2023/03/15 12:37:46;;;;;;;;;;;;;;;8.50;86.13;97886.41;5119918;28;19949;-63
2023/03/15 12:40:31;;;;;;;;;;;;;;;8.66;83.19;97888.94;5118147;28;20752;-63
2023/03/15 12:43:01;;;;;;;;;;;;;;;8.71;76.58;97896.19;5117515;28;20189;-63
2023/03/15 12:45:35;;;;;;;;;;;;;;;8.58;78.61;97891.25;5118330;28;19951;-63
2023/03/15 12:48:20;;;;;;;;;;;;;;;8.67;81.76;97895.88;5117112;28;19959;-63
2023/03/15 12:50:51;;;;;;;;;;;;;;;8.71;81.80;97898.06;5119997;28;19999;-62